sensor_id;sensor_type;location;lat;lon;timestamp;P1;durP1;ratioP1;P2;durP2;ratioP2
59974;SDS011;62136;-35.664;-63.766;2022-12-07T00:01:33;4.50;;;2.22;;
59974;SDS011;62136;-35.664;-63.766;2022-12-07T00:04:22;5.83;;;2.60;;
59974;SDS011;62136;-35.664;-63.766;2022-12-07T00:07:04;5.45;;;2.30;;
59974;SDS011;62136;-35.664;-63.766;2022-12-07T00:09:43;5.55;;;2.70;;
59974;SDS011;62136;-35.664;-63.766;2022-12-07T00:12:10;4.57;;;2.25;;
59974;SDS011;62136;-35.664;-63.766;2022-12-07T00:14:37;3.45;;;2.47;;
59974;SDS011;62136;-35.664;-63.766;2022-12-07T00:17:04;4.32;;;2.40;;
59974;SDS011;62136;-35.664;-63.766;2022-12-07T00:19:31;3.25;;;2.30;;
59974;SDS011;62136;-35.664;-63.766;2022-12-07T00:21:58;3.95;;;2.30;;
59974;SDS011;62136;-35.664;-63.766;2022-12-07T00:24:26;4.63;;;2.13;;
59974;SDS011;62136;-35.664;-63.766;2022-12-07T00:26:53;3.67;;;2.20;;
59974;SDS011;62136;-35.664;-63.766;2022-12-07T00:29:20;3.17;;;2.15;;
59974;SDS011;62136;-35.664;-63.766;2022-12-07T00:31:48;3.05;;;2.10;;
59974;SDS011;62136;-35.664;-63.766;2022-12-07T00:34:19;4.75;;;2.25;;
59974;SDS011;62136;-35.664;-63.766;2022-12-07T00:36:47;3.70;;;2.15;;
59974;SDS011;62136;-35.664;-63.766;2022-12-07T00:39:15;4.75;;;2.47;;
59974;SDS011;62136;-35.664;-63.766;2022-12-07T00:41:42;5.18;;;2.60;;
59974;SDS011;62136;-35.664;-63.766;2022-12-07T00:44:09;5.28;;;2.35;;
59974;SDS011;62136;-35.664;-63.766;2022-12-07T00:46:37;4.55;;;2.22;;
59974;SDS011;62136;-35.664;-63.766;2022-12-07T00:49:04;4.25;;;2.30;;
59974;SDS011;62136;-35.664;-63.766;2022-12-07T00:51:31;3.72;;;2.22;;
59974;SDS011;62136;-35.664;-63.766;2022-12-07T00:53:58;4.20;;;2.40;;
59974;SDS011;62136;-35.664;-63.766;2022-12-07T00:56:26;5.40;;;2.22;;
59974;SDS011;62136;-35.664;-63.766;2022-12-07T00:58:58;2.85;;;2.13;;
59974;SDS011;62136;-35.664;-63.766;2022-12-07T01:01:28;3.78;;;2.13;;
59974;SDS011;62136;-35.664;-63.766;2022-12-07T01:03:57;3.88;;;2.28;;
59974;SDS011;62136;-35.664;-63.766;2022-12-07T01:06:26;3.75;;;2.22;;
59974;SDS011;62136;-35.664;-63.766;2022-12-07T01:08:54;4.22;;;2.13;;
59974;SDS011;62136;-35.664;-63.766;2022-12-07T01:11:22;2.30;;;2.08;;
59974;SDS011;62136;-35.664;-63.766;2022-12-07T01:13:52;5.20;;;2.30;;
59974;SDS011;62136;-35.664;-63.766;2022-12-07T01:16:21;2.97;;;1.95;;
59974;SDS011;62136;-35.664;-63.766;2022-12-07T01:18:51;3.28;;;2.13;;
59974;SDS011;62136;-35.664;-63.766;2022-12-07T01:21:25;3.92;;;2.28;;
59974;SDS011;62136;-35.664;-63.766;2022-12-07T01:23:54;4.25;;;2.30;;
59974;SDS011;62136;-35.664;-63.766;2022-12-07T01:26:26;3.65;;;2.15;;
59974;SDS011;62136;-35.664;-63.766;2022-12-07T01:28:54;2.97;;;2.00;;
59974;SDS011;62136;-35.664;-63.766;2022-12-07T01:31:26;3.75;;;2.05;;
59974;SDS011;62136;-35.664;-63.766;2022-12-07T01:33:55;3.45;;;2.22;;
59974;SDS011;62136;-35.664;-63.766;2022-12-07T01:36:24;3.58;;;2.08;;
59974;SDS011;62136;-35.664;-63.766;2022-12-07T01:39:00;2.97;;;1.90;;
59974;SDS011;62136;-35.664;-63.766;2022-12-07T01:41:33;4.00;;;2.00;;
59974;SDS011;62136;-35.664;-63.766;2022-12-07T01:46:49;2.97;;;2.10;;
59974;SDS011;62136;-35.664;-63.766;2022-12-07T01:52:24;5.43;;;2.28;;
59974;SDS011;62136;-35.664;-63.766;2022-12-07T01:54:56;3.60;;;1.95;;
59974;SDS011;62136;-35.664;-63.766;2022-12-07T01:57:30;3.55;;;2.00;;
59974;SDS011;62136;-35.664;-63.766;2022-12-07T01:59:59;2.17;;;1.75;;
59974;SDS011;62136;-35.664;-63.766;2022-12-07T02:02:51;4.13;;;1.77;;
59974;SDS011;62136;-35.664;-63.766;2022-12-07T02:05:17;3.30;;;2.03;;
59974;SDS011;62136;-35.664;-63.766;2022-12-07T02:07:45;3.55;;;2.00;;
59974;SDS011;62136;-35.664;-63.766;2022-12-07T02:12:42;3.88;;;2.17;;
59974;SDS011;62136;-35.664;-63.766;2022-12-07T02:15:12;2.15;;;1.95;;
59974;SDS011;62136;-35.664;-63.766;2022-12-07T02:20:30;3.95;;;2.30;;
59974;SDS011;62136;-35.664;-63.766;2022-12-07T02:28:53;2.30;;;1.63;;
59974;SDS011;62136;-35.664;-63.766;2022-12-07T02:31:34;2.80;;;1.85;;
59974;SDS011;62136;-35.664;-63.766;2022-12-07T02:34:14;3.50;;;1.88;;
59974;SDS011;62136;-35.664;-63.766;2022-12-07T02:37:10;4.13;;;2.00;;
59974;SDS011;62136;-35.664;-63.766;2022-12-07T02:40:01;3.65;;;2.00;;
59974;SDS011;62136;-35.664;-63.766;2022-12-07T02:42:45;5.78;;;1.77;;
59974;SDS011;62136;-35.664;-63.766;2022-12-07T02:45:20;4.77;;;2.27;;
59974;SDS011;62136;-35.664;-63.766;2022-12-07T02:47:51;3.35;;;2.30;;
59974;SDS011;62136;-35.664;-63.766;2022-12-07T02:50:21;3.88;;;1.90;;
59974;SDS011;62136;-35.664;-63.766;2022-12-07T02:52:48;4.53;;;2.22;;
59974;SDS011;62136;-35.664;-63.766;2022-12-07T02:55:15;3.10;;;1.92;;
59974;SDS011;62136;-35.664;-63.766;2022-12-07T02:58:06;3.28;;;2.03;;
59974;SDS011;62136;-35.664;-63.766;2022-12-07T03:00:49;2.33;;;2.00;;
59974;SDS011;62136;-35.664;-63.766;2022-12-07T03:03:35;4.65;;;2.15;;
59974;SDS011;62136;-35.664;-63.766;2022-12-07T03:06:08;3.25;;;1.88;;
59974;SDS011;62136;-35.664;-63.766;2022-12-07T03:08:51;1.98;;;1.70;;
59974;SDS011;62136;-35.664;-63.766;2022-12-07T03:11:29;3.03;;;1.50;;
59974;SDS011;62136;-35.664;-63.766;2022-12-07T03:16:50;3.17;;;1.75;;
59974;SDS011;62136;-35.664;-63.766;2022-12-07T03:19:21;2.40;;;1.83;;
59974;SDS011;62136;-35.664;-63.766;2022-12-07T03:21:55;3.03;;;1.92;;
59974;SDS011;62136;-35.664;-63.766;2022-12-07T03:24:31;2.72;;;1.60;;
59974;SDS011;62136;-35.664;-63.766;2022-12-07T03:27:04;2.92;;;1.70;;
59974;SDS011;62136;-35.664;-63.766;2022-12-07T03:29:37;3.47;;;2.30;;
59974;SDS011;62136;-35.664;-63.766;2022-12-07T03:32:33;2.33;;;1.80;;
59974;SDS011;62136;-35.664;-63.766;2022-12-07T03:35:12;2.53;;;1.70;;
59974;SDS011;62136;-35.664;-63.766;2022-12-07T03:37:54;2.67;;;1.80;;
59974;SDS011;62136;-35.664;-63.766;2022-12-07T03:40:50;2.20;;;1.80;;
59974;SDS011;62136;-35.664;-63.766;2022-12-07T03:43:37;2.65;;;1.75;;
59974;SDS011;62136;-35.664;-63.766;2022-12-07T03:57:38;4.68;;;2.15;;
59974;SDS011;62136;-35.664;-63.766;2022-12-07T04:00:07;2.55;;;1.40;;
59974;SDS011;62136;-35.664;-63.766;2022-12-07T04:02:36;2.90;;;1.50;;
59974;SDS011;62136;-35.664;-63.766;2022-12-07T04:05:03;2.58;;;1.52;;
59974;SDS011;62136;-35.664;-63.766;2022-12-07T04:07:34;2.45;;;1.70;;
59974;SDS011;62136;-35.664;-63.766;2022-12-07T04:10:04;1.63;;;1.50;;
59974;SDS011;62136;-35.664;-63.766;2022-12-07T04:12:31;1.65;;;1.40;;
59974;SDS011;62136;-35.664;-63.766;2022-12-07T04:14:59;2.75;;;1.58;;
59974;SDS011;62136;-35.664;-63.766;2022-12-07T04:17:26;4.20;;;1.65;;
59974;SDS011;62136;-35.664;-63.766;2022-12-07T04:19:53;3.10;;;1.92;;
59974;SDS011;62136;-35.664;-63.766;2022-12-07T04:22:20;2.90;;;1.70;;
59974;SDS011;62136;-35.664;-63.766;2022-12-07T04:24:47;3.50;;;1.52;;
59974;SDS011;62136;-35.664;-63.766;2022-12-07T04:27:14;3.03;;;1.52;;
59974;SDS011;62136;-35.664;-63.766;2022-12-07T04:29:41;4.40;;;1.70;;
59974;SDS011;62136;-35.664;-63.766;2022-12-07T04:32:08;2.85;;;1.50;;
59974;SDS011;62136;-35.664;-63.766;2022-12-07T04:34:35;3.55;;;1.70;;
59974;SDS011;62136;-35.664;-63.766;2022-12-07T04:37:02;3.28;;;1.70;;
59974;SDS011;62136;-35.664;-63.766;2022-12-07T04:39:31;3.80;;;1.52;;
59974;SDS011;62136;-35.664;-63.766;2022-12-07T04:41:59;2.75;;;1.35;;
59974;SDS011;62136;-35.664;-63.766;2022-12-07T04:44:27;3.58;;;1.52;;
59974;SDS011;62136;-35.664;-63.766;2022-12-07T04:46:55;3.08;;;1.48;;
59974;SDS011;62136;-35.664;-63.766;2022-12-07T04:49:22;2.97;;;1.42;;
59974;SDS011;62136;-35.664;-63.766;2022-12-07T04:51:50;1.85;;;1.52;;
59974;SDS011;62136;-35.664;-63.766;2022-12-07T04:54:17;3.33;;;1.40;;
59974;SDS011;62136;-35.664;-63.766;2022-12-07T04:56:45;2.33;;;1.20;;
59974;SDS011;62136;-35.664;-63.766;2022-12-07T04:59:12;2.15;;;1.40;;
59974;SDS011;62136;-35.664;-63.766;2022-12-07T05:01:41;3.20;;;1.48;;
59974;SDS011;62136;-35.664;-63.766;2022-12-07T05:04:08;2.80;;;1.42;;
59974;SDS011;62136;-35.664;-63.766;2022-12-07T05:06:35;4.18;;;1.70;;
59974;SDS011;62136;-35.664;-63.766;2022-12-07T05:09:02;1.55;;;1.40;;
59974;SDS011;62136;-35.664;-63.766;2022-12-07T05:11:29;2.30;;;1.48;;
59974;SDS011;62136;-35.664;-63.766;2022-12-07T05:14:07;3.78;;;1.35;;
59974;SDS011;62136;-35.664;-63.766;2022-12-07T05:16:35;1.98;;;1.10;;
59974;SDS011;62136;-35.664;-63.766;2022-12-07T05:19:02;2.20;;;1.52;;
59974;SDS011;62136;-35.664;-63.766;2022-12-07T05:21:30;3.22;;;1.55;;
59974;SDS011;62136;-35.664;-63.766;2022-12-07T05:23:57;2.75;;;1.58;;
59974;SDS011;62136;-35.664;-63.766;2022-12-07T05:26:24;3.97;;;1.58;;
59974;SDS011;62136;-35.664;-63.766;2022-12-07T05:28:51;4.47;;;2.00;;
59974;SDS011;62136;-35.664;-63.766;2022-12-07T05:31:19;2.40;;;1.20;;
59974;SDS011;62136;-35.664;-63.766;2022-12-07T05:33:47;2.53;;;1.60;;
59974;SDS011;62136;-35.664;-63.766;2022-12-07T05:36:14;3.50;;;1.40;;
59974;SDS011;62136;-35.664;-63.766;2022-12-07T05:38:41;5.45;;;1.60;;
59974;SDS011;62136;-35.664;-63.766;2022-12-07T05:41:09;3.22;;;1.40;;
59974;SDS011;62136;-35.664;-63.766;2022-12-07T05:44:00;3.13;;;1.58;;
59974;SDS011;62136;-35.664;-63.766;2022-12-07T05:46:27;2.58;;;1.20;;
59974;SDS011;62136;-35.664;-63.766;2022-12-07T05:48:54;5.85;;;1.60;;
59974;SDS011;62136;-35.664;-63.766;2022-12-07T05:51:21;2.92;;;1.20;;
59974;SDS011;62136;-35.664;-63.766;2022-12-07T05:53:48;1.90;;;1.30;;
59974;SDS011;62136;-35.664;-63.766;2022-12-07T05:56:15;2.00;;;1.30;;
59974;SDS011;62136;-35.664;-63.766;2022-12-07T05:58:42;3.70;;;1.33;;
59974;SDS011;62136;-35.664;-63.766;2022-12-07T06:01:28;4.30;;;1.20;;
59974;SDS011;62136;-35.664;-63.766;2022-12-07T06:03:55;2.55;;;1.48;;
59974;SDS011;62136;-35.664;-63.766;2022-12-07T06:06:22;2.83;;;1.25;;
59974;SDS011;62136;-35.664;-63.766;2022-12-07T06:08:49;2.00;;;1.10;;
59974;SDS011;62136;-35.664;-63.766;2022-12-07T06:11:16;4.38;;;1.58;;
59974;SDS011;62136;-35.664;-63.766;2022-12-07T06:14:01;2.42;;;1.30;;
59974;SDS011;62136;-35.664;-63.766;2022-12-07T06:16:28;3.50;;;1.17;;
59974;SDS011;62136;-35.664;-63.766;2022-12-07T06:18:55;3.35;;;1.40;;
59974;SDS011;62136;-35.664;-63.766;2022-12-07T06:21:22;2.80;;;1.33;;
59974;SDS011;62136;-35.664;-63.766;2022-12-07T06:23:51;3.38;;;1.58;;
59974;SDS011;62136;-35.664;-63.766;2022-12-07T06:26:18;3.70;;;1.70;;
59974;SDS011;62136;-35.664;-63.766;2022-12-07T06:28:45;4.78;;;1.55;;
59974;SDS011;62136;-35.664;-63.766;2022-12-07T06:31:12;2.63;;;1.20;;
59974;SDS011;62136;-35.664;-63.766;2022-12-07T06:33:40;1.67;;;1.23;;
59974;SDS011;62136;-35.664;-63.766;2022-12-07T06:36:07;2.80;;;1.52;;
59974;SDS011;62136;-35.664;-63.766;2022-12-07T06:38:35;3.30;;;1.40;;
59974;SDS011;62136;-35.664;-63.766;2022-12-07T06:43:27;3.88;;;1.20;;
59974;SDS011;62136;-35.664;-63.766;2022-12-07T06:45:55;2.70;;;1.20;;
59974;SDS011;62136;-35.664;-63.766;2022-12-07T06:48:22;4.30;;;1.27;;
59974;SDS011;62136;-35.664;-63.766;2022-12-07T06:50:49;6.82;;;1.17;;
59974;SDS011;62136;-35.664;-63.766;2022-12-07T06:53:16;2.40;;;1.30;;
59974;SDS011;62136;-35.664;-63.766;2022-12-07T06:55:43;2.55;;;1.33;;
59974;SDS011;62136;-35.664;-63.766;2022-12-07T06:58:10;3.03;;;1.35;;
59974;SDS011;62136;-35.664;-63.766;2022-12-07T07:00:37;2.55;;;1.17;;
59974;SDS011;62136;-35.664;-63.766;2022-12-07T07:03:04;2.95;;;1.40;;
59974;SDS011;62136;-35.664;-63.766;2022-12-07T07:05:31;3.40;;;1.30;;
59974;SDS011;62136;-35.664;-63.766;2022-12-07T07:07:58;2.72;;;1.15;;
59974;SDS011;62136;-35.664;-63.766;2022-12-07T07:10:25;2.80;;;1.23;;
59974;SDS011;62136;-35.664;-63.766;2022-12-07T07:12:52;2.85;;;1.15;;
59974;SDS011;62136;-35.664;-63.766;2022-12-07T07:15:19;4.68;;;1.42;;
59974;SDS011;62136;-35.664;-63.766;2022-12-07T07:17:50;4.03;;;1.30;;
59974;SDS011;62136;-35.664;-63.766;2022-12-07T07:20:17;3.15;;;1.30;;
59974;SDS011;62136;-35.664;-63.766;2022-12-07T07:22:44;2.75;;;1.20;;
59974;SDS011;62136;-35.664;-63.766;2022-12-07T07:25:11;4.20;;;1.40;;
59974;SDS011;62136;-35.664;-63.766;2022-12-07T07:27:38;4.07;;;1.60;;
59974;SDS011;62136;-35.664;-63.766;2022-12-07T07:30:06;2.13;;;1.27;;
59974;SDS011;62136;-35.664;-63.766;2022-12-07T07:32:34;3.25;;;1.40;;
59974;SDS011;62136;-35.664;-63.766;2022-12-07T07:35:01;6.38;;;1.20;;
59974;SDS011;62136;-35.664;-63.766;2022-12-07T07:37:28;4.15;;;1.30;;
59974;SDS011;62136;-35.664;-63.766;2022-12-07T07:39:55;2.78;;;1.30;;
59974;SDS011;62136;-35.664;-63.766;2022-12-07T07:42:22;5.35;;;1.35;;
59974;SDS011;62136;-35.664;-63.766;2022-12-07T07:44:49;5.15;;;1.25;;
59974;SDS011;62136;-35.664;-63.766;2022-12-07T07:47:16;3.58;;;1.40;;
59974;SDS011;62136;-35.664;-63.766;2022-12-07T07:49:43;2.70;;;0.95;;
59974;SDS011;62136;-35.664;-63.766;2022-12-07T07:52:10;3.05;;;1.15;;
59974;SDS011;62136;-35.664;-63.766;2022-12-07T07:54:37;4.03;;;1.17;;
59974;SDS011;62136;-35.664;-63.766;2022-12-07T07:57:04;3.38;;;1.50;;
59974;SDS011;62136;-35.664;-63.766;2022-12-07T07:59:31;2.83;;;1.17;;
59974;SDS011;62136;-35.664;-63.766;2022-12-07T08:01:58;3.85;;;1.50;;
59974;SDS011;62136;-35.664;-63.766;2022-12-07T08:04:25;2.10;;;0.98;;
59974;SDS011;62136;-35.664;-63.766;2022-12-07T08:06:52;2.25;;;1.27;;
59974;SDS011;62136;-35.664;-63.766;2022-12-07T08:09:19;4.85;;;1.67;;
59974;SDS011;62136;-35.664;-63.766;2022-12-07T08:11:46;2.72;;;1.10;;
59974;SDS011;62136;-35.664;-63.766;2022-12-07T08:14:14;3.78;;;1.27;;
59974;SDS011;62136;-35.664;-63.766;2022-12-07T08:16:41;3.35;;;1.30;;
59974;SDS011;62136;-35.664;-63.766;2022-12-07T08:19:08;3.63;;;1.40;;
59974;SDS011;62136;-35.664;-63.766;2022-12-07T08:21:35;2.97;;;1.63;;
59974;SDS011;62136;-35.664;-63.766;2022-12-07T08:24:03;2.55;;;1.30;;
59974;SDS011;62136;-35.664;-63.766;2022-12-07T08:26:30;3.72;;;1.30;;
59974;SDS011;62136;-35.664;-63.766;2022-12-07T08:28:57;3.95;;;1.20;;
59974;SDS011;62136;-35.664;-63.766;2022-12-07T08:31:24;4.03;;;1.25;;
59974;SDS011;62136;-35.664;-63.766;2022-12-07T08:33:53;2.67;;;1.10;;
59974;SDS011;62136;-35.664;-63.766;2022-12-07T08:36:20;3.45;;;1.42;;
59974;SDS011;62136;-35.664;-63.766;2022-12-07T08:38:48;3.67;;;1.25;;
59974;SDS011;62136;-35.664;-63.766;2022-12-07T08:41:16;4.80;;;1.33;;
59974;SDS011;62136;-35.664;-63.766;2022-12-07T08:43:43;2.90;;;1.25;;
59974;SDS011;62136;-35.664;-63.766;2022-12-07T08:46:30;5.45;;;1.17;;
59974;SDS011;62136;-35.664;-63.766;2022-12-07T08:49:03;3.22;;;1.50;;
59974;SDS011;62136;-35.664;-63.766;2022-12-07T08:51:36;4.20;;;1.45;;
59974;SDS011;62136;-35.664;-63.766;2022-12-07T08:54:05;3.63;;;1.25;;
59974;SDS011;62136;-35.664;-63.766;2022-12-07T08:56:34;3.08;;;1.33;;
59974;SDS011;62136;-35.664;-63.766;2022-12-07T08:59:01;4.85;;;1.50;;
59974;SDS011;62136;-35.664;-63.766;2022-12-07T09:01:29;2.65;;;1.13;;
59974;SDS011;62136;-35.664;-63.766;2022-12-07T09:03:56;4.32;;;1.30;;
59974;SDS011;62136;-35.664;-63.766;2022-12-07T09:06:23;2.85;;;1.40;;
59974;SDS011;62136;-35.664;-63.766;2022-12-07T09:08:51;3.78;;;1.25;;
59974;SDS011;62136;-35.664;-63.766;2022-12-07T09:11:22;4.05;;;1.42;;
59974;SDS011;62136;-35.664;-63.766;2022-12-07T09:13:49;3.40;;;1.40;;
59974;SDS011;62136;-35.664;-63.766;2022-12-07T09:16:17;1.40;;;1.00;;
59974;SDS011;62136;-35.664;-63.766;2022-12-07T09:18:44;2.50;;;1.45;;
59974;SDS011;62136;-35.664;-63.766;2022-12-07T09:21:11;5.20;;;1.40;;
59974;SDS011;62136;-35.664;-63.766;2022-12-07T09:23:38;3.92;;;1.40;;
59974;SDS011;62136;-35.664;-63.766;2022-12-07T09:26:07;3.53;;;1.38;;
59974;SDS011;62136;-35.664;-63.766;2022-12-07T09:28:34;2.38;;;1.10;;
59974;SDS011;62136;-35.664;-63.766;2022-12-07T09:31:02;4.82;;;1.50;;
59974;SDS011;62136;-35.664;-63.766;2022-12-07T09:33:29;2.80;;;1.20;;
59974;SDS011;62136;-35.664;-63.766;2022-12-07T09:35:56;3.13;;;1.45;;
59974;SDS011;62136;-35.664;-63.766;2022-12-07T09:38:23;2.95;;;1.25;;
59974;SDS011;62136;-35.664;-63.766;2022-12-07T09:40:52;4.55;;;1.33;;
59974;SDS011;62136;-35.664;-63.766;2022-12-07T09:43:22;3.28;;;1.10;;
59974;SDS011;62136;-35.664;-63.766;2022-12-07T09:45:51;3.08;;;1.17;;
59974;SDS011;62136;-35.664;-63.766;2022-12-07T09:53:42;2.90;;;1.20;;
59974;SDS011;62136;-35.664;-63.766;2022-12-07T09:56:11;3.22;;;1.38;;
59974;SDS011;62136;-35.664;-63.766;2022-12-07T09:58:41;2.95;;;1.20;;
59974;SDS011;62136;-35.664;-63.766;2022-12-07T10:01:10;3.38;;;1.38;;
59974;SDS011;62136;-35.664;-63.766;2022-12-07T10:06:20;5.60;;;1.38;;
59974;SDS011;62136;-35.664;-63.766;2022-12-07T10:08:47;4.22;;;1.55;;
59974;SDS011;62136;-35.664;-63.766;2022-12-07T10:11:14;2.72;;;1.17;;
59974;SDS011;62136;-35.664;-63.766;2022-12-07T10:13:48;1.85;;;1.13;;
59974;SDS011;62136;-35.664;-63.766;2022-12-07T10:22:02;3.05;;;1.27;;
59974;SDS011;62136;-35.664;-63.766;2022-12-07T10:24:35;1.25;;;1.00;;
59974;SDS011;62136;-35.664;-63.766;2022-12-07T10:27:05;1.52;;;1.00;;
59974;SDS011;62136;-35.664;-63.766;2022-12-07T10:29:58;2.78;;;1.30;;
59974;SDS011;62136;-35.664;-63.766;2022-12-07T10:32:35;3.65;;;1.48;;
59974;SDS011;62136;-35.664;-63.766;2022-12-07T10:37:56;3.53;;;1.30;;
59974;SDS011;62136;-35.664;-63.766;2022-12-07T10:40:26;2.88;;;1.25;;
59974;SDS011;62136;-35.664;-63.766;2022-12-07T10:43:03;2.20;;;1.10;;
59974;SDS011;62136;-35.664;-63.766;2022-12-07T10:45:54;2.90;;;1.20;;
59974;SDS011;62136;-35.664;-63.766;2022-12-07T10:48:48;3.40;;;1.30;;
59974;SDS011;62136;-35.664;-63.766;2022-12-07T10:51:21;1.85;;;1.23;;
59974;SDS011;62136;-35.664;-63.766;2022-12-07T11:05:26;3.70;;;1.88;;
59974;SDS011;62136;-35.664;-63.766;2022-12-07T11:11:22;3.28;;;1.60;;
59974;SDS011;62136;-35.664;-63.766;2022-12-07T11:16:58;3.63;;;1.30;;
59974;SDS011;62136;-35.664;-63.766;2022-12-07T11:22:36;2.65;;;1.50;;
59974;SDS011;62136;-35.664;-63.766;2022-12-07T11:25:31;1.90;;;1.57;;
59974;SDS011;62136;-35.664;-63.766;2022-12-07T11:34:15;6.40;;;2.13;;
59974;SDS011;62136;-35.664;-63.766;2022-12-07T11:36:54;7.93;;;2.50;;
59974;SDS011;62136;-35.664;-63.766;2022-12-07T11:39:25;6.15;;;2.50;;
59974;SDS011;62136;-35.664;-63.766;2022-12-07T11:47:41;9.07;;;2.03;;
59974;SDS011;62136;-35.664;-63.766;2022-12-07T11:56:15;4.57;;;2.65;;
59974;SDS011;62136;-35.664;-63.766;2022-12-07T11:59:02;6.00;;;2.30;;
59974;SDS011;62136;-35.664;-63.766;2022-12-07T12:06:58;4.82;;;2.30;;
59974;SDS011;62136;-35.664;-63.766;2022-12-07T12:26:19;9.32;;;3.63;;
59974;SDS011;62136;-35.664;-63.766;2022-12-07T12:34:00;12.27;;;5.60;;
59974;SDS011;62136;-35.664;-63.766;2022-12-07T12:46:47;11.40;;;6.97;;
59974;SDS011;62136;-35.664;-63.766;2022-12-07T12:51:48;16.58;;;7.45;;
59974;SDS011;62136;-35.664;-63.766;2022-12-07T12:57:24;12.32;;;7.80;;
59974;SDS011;62136;-35.664;-63.766;2022-12-07T13:18:36;17.92;;;11.02;;
59974;SDS011;62136;-35.664;-63.766;2022-12-07T13:26:21;15.00;;;9.75;;
59974;SDS011;62136;-35.664;-63.766;2022-12-07T13:34:34;15.27;;;9.38;;
59974;SDS011;62136;-35.664;-63.766;2022-12-07T13:39:49;14.32;;;9.25;;
59974;SDS011;62136;-35.664;-63.766;2022-12-07T13:42:28;16.02;;;9.63;;
59974;SDS011;62136;-35.664;-63.766;2022-12-07T13:44:57;11.07;;;8.80;;
59974;SDS011;62136;-35.664;-63.766;2022-12-07T13:50:02;12.80;;;8.32;;
59974;SDS011;62136;-35.664;-63.766;2022-12-07T14:06:02;9.05;;;6.85;;
59974;SDS011;62136;-35.664;-63.766;2022-12-07T14:09:06;10.95;;;7.28;;
59974;SDS011;62136;-35.664;-63.766;2022-12-07T14:11:35;14.48;;;8.30;;
59974;SDS011;62136;-35.664;-63.766;2022-12-07T14:14:04;12.55;;;7.18;;
59974;SDS011;62136;-35.664;-63.766;2022-12-07T14:16:36;9.93;;;7.38;;
59974;SDS011;62136;-35.664;-63.766;2022-12-07T14:19:05;13.23;;;8.15;;
59974;SDS011;62136;-35.664;-63.766;2022-12-07T14:22:37;11.65;;;7.47;;
59974;SDS011;62136;-35.664;-63.766;2022-12-07T14:24:45;10.05;;;7.70;;
59974;SDS011;62136;-35.664;-63.766;2022-12-07T14:27:20;11.82;;;7.60;;
59974;SDS011;62136;-35.664;-63.766;2022-12-07T14:29:56;9.95;;;7.22;;
59974;SDS011;62136;-35.664;-63.766;2022-12-07T14:32:24;14.75;;;7.65;;
59974;SDS011;62136;-35.664;-63.766;2022-12-07T14:34:56;11.65;;;7.60;;
59974;SDS011;62136;-35.664;-63.766;2022-12-07T14:37:26;10.68;;;6.88;;
59974;SDS011;62136;-35.664;-63.766;2022-12-07T14:39:55;9.90;;;6.72;;
59974;SDS011;62136;-35.664;-63.766;2022-12-07T14:42:23;10.15;;;6.18;;
59974;SDS011;62136;-35.664;-63.766;2022-12-07T14:44:55;10.10;;;6.32;;
59974;SDS011;62136;-35.664;-63.766;2022-12-07T14:47:23;7.93;;;6.20;;
59974;SDS011;62136;-35.664;-63.766;2022-12-07T14:49:52;11.80;;;6.30;;
59974;SDS011;62136;-35.664;-63.766;2022-12-07T14:52:23;9.02;;;6.20;;
59974;SDS011;62136;-35.664;-63.766;2022-12-07T14:54:54;10.13;;;6.82;;
59974;SDS011;62136;-35.664;-63.766;2022-12-07T14:57:21;8.50;;;5.70;;
59974;SDS011;62136;-35.664;-63.766;2022-12-07T14:59:48;9.23;;;5.40;;
59974;SDS011;62136;-35.664;-63.766;2022-12-07T15:02:16;8.63;;;5.28;;
59974;SDS011;62136;-35.664;-63.766;2022-12-07T15:04:43;7.90;;;5.20;;
59974;SDS011;62136;-35.664;-63.766;2022-12-07T15:07:19;7.38;;;4.80;;
59974;SDS011;62136;-35.664;-63.766;2022-12-07T15:09:48;7.53;;;4.55;;
59974;SDS011;62136;-35.664;-63.766;2022-12-07T15:12:15;9.65;;;5.03;;
59974;SDS011;62136;-35.664;-63.766;2022-12-07T15:14:42;8.88;;;3.85;;
59974;SDS011;62136;-35.664;-63.766;2022-12-07T15:17:10;9.57;;;5.15;;
59974;SDS011;62136;-35.664;-63.766;2022-12-07T15:19:38;5.40;;;3.92;;
59974;SDS011;62136;-35.664;-63.766;2022-12-07T15:22:05;6.95;;;4.05;;
59974;SDS011;62136;-35.664;-63.766;2022-12-07T15:24:33;6.03;;;3.75;;
59974;SDS011;62136;-35.664;-63.766;2022-12-07T15:27:01;6.28;;;3.55;;
59974;SDS011;62136;-35.664;-63.766;2022-12-07T15:29:30;5.28;;;3.45;;
59974;SDS011;62136;-35.664;-63.766;2022-12-07T15:31:57;5.25;;;3.58;;
59974;SDS011;62136;-35.664;-63.766;2022-12-07T15:34:25;6.28;;;3.97;;
59974;SDS011;62136;-35.664;-63.766;2022-12-07T15:36:54;4.40;;;3.40;;
59974;SDS011;62136;-35.664;-63.766;2022-12-07T15:39:21;7.30;;;3.50;;
59974;SDS011;62136;-35.664;-63.766;2022-12-07T15:41:48;9.05;;;3.42;;
59974;SDS011;62136;-35.664;-63.766;2022-12-07T15:44:16;5.80;;;3.35;;
59974;SDS011;62136;-35.664;-63.766;2022-12-07T15:47:03;4.05;;;2.88;;
59974;SDS011;62136;-35.664;-63.766;2022-12-07T15:49:31;3.15;;;2.35;;
59974;SDS011;62136;-35.664;-63.766;2022-12-07T15:51:58;4.55;;;2.97;;
59974;SDS011;62136;-35.664;-63.766;2022-12-07T15:54:26;2.88;;;2.55;;
59974;SDS011;62136;-35.664;-63.766;2022-12-07T15:56:54;3.83;;;2.63;;
59974;SDS011;62136;-35.664;-63.766;2022-12-07T15:59:25;3.33;;;2.30;;
59974;SDS011;62136;-35.664;-63.766;2022-12-07T16:01:57;3.85;;;2.42;;
59974;SDS011;62136;-35.664;-63.766;2022-12-07T16:04:26;5.15;;;2.30;;
59974;SDS011;62136;-35.664;-63.766;2022-12-07T16:06:54;3.85;;;2.35;;
59974;SDS011;62136;-35.664;-63.766;2022-12-07T16:09:22;4.20;;;2.35;;
59974;SDS011;62136;-35.664;-63.766;2022-12-07T16:11:50;4.68;;;2.10;;
59974;SDS011;62136;-35.664;-63.766;2022-12-07T16:14:18;3.88;;;2.15;;
59974;SDS011;62136;-35.664;-63.766;2022-12-07T16:16:45;4.10;;;2.28;;
59974;SDS011;62136;-35.664;-63.766;2022-12-07T16:19:13;3.83;;;2.08;;
59974;SDS011;62136;-35.664;-63.766;2022-12-07T16:21:40;4.05;;;2.00;;
59974;SDS011;62136;-35.664;-63.766;2022-12-07T16:24:08;3.53;;;2.38;;
59974;SDS011;62136;-35.664;-63.766;2022-12-07T16:26:35;4.95;;;2.25;;
59974;SDS011;62136;-35.664;-63.766;2022-12-07T16:29:02;2.88;;;1.92;;
59974;SDS011;62136;-35.664;-63.766;2022-12-07T16:31:29;2.83;;;1.98;;
59974;SDS011;62136;-35.664;-63.766;2022-12-07T16:33:59;4.30;;;1.80;;
59974;SDS011;62136;-35.664;-63.766;2022-12-07T16:36:26;4.05;;;1.80;;
59974;SDS011;62136;-35.664;-63.766;2022-12-07T16:38:53;2.40;;;1.83;;
59974;SDS011;62136;-35.664;-63.766;2022-12-07T16:41:20;3.47;;;1.98;;
59974;SDS011;62136;-35.664;-63.766;2022-12-07T16:43:47;3.08;;;2.03;;
59974;SDS011;62136;-35.664;-63.766;2022-12-07T16:46:14;3.75;;;1.80;;
59974;SDS011;62136;-35.664;-63.766;2022-12-07T16:48:42;2.40;;;1.88;;
59974;SDS011;62136;-35.664;-63.766;2022-12-07T16:51:10;2.00;;;1.67;;
59974;SDS011;62136;-35.664;-63.766;2022-12-07T16:53:39;2.45;;;1.60;;
59974;SDS011;62136;-35.664;-63.766;2022-12-07T16:56:12;2.65;;;1.60;;
59974;SDS011;62136;-35.664;-63.766;2022-12-07T16:58:41;3.63;;;2.10;;
59974;SDS011;62136;-35.664;-63.766;2022-12-07T17:01:12;2.38;;;1.50;;
59974;SDS011;62136;-35.664;-63.766;2022-12-07T17:03:41;2.00;;;1.30;;
59974;SDS011;62136;-35.664;-63.766;2022-12-07T17:06:13;3.30;;;1.95;;
59974;SDS011;62136;-35.664;-63.766;2022-12-07T17:08:45;2.40;;;1.50;;
59974;SDS011;62136;-35.664;-63.766;2022-12-07T17:11:12;1.50;;;1.40;;
59974;SDS011;62136;-35.664;-63.766;2022-12-07T17:13:42;2.17;;;1.60;;
59974;SDS011;62136;-35.664;-63.766;2022-12-07T17:16:27;2.15;;;1.60;;
59974;SDS011;62136;-35.664;-63.766;2022-12-07T17:18:55;2.65;;;1.50;;
59974;SDS011;62136;-35.664;-63.766;2022-12-07T17:21:22;4.45;;;1.50;;
59974;SDS011;62136;-35.664;-63.766;2022-12-07T17:23:50;2.17;;;1.20;;
59974;SDS011;62136;-35.664;-63.766;2022-12-07T17:26:22;2.88;;;1.42;;
59974;SDS011;62136;-35.664;-63.766;2022-12-07T17:28:50;1.52;;;1.30;;